Date,TemperatureHighF,TemperatureAvgF,TemperatureLowF,DewpointHighF,DewpointAvgF,DewpointLowF,HumidityHigh,HumidityAvg,HumidityLow,PressureMaxIn,PressureMinIn,WindSpeedMaxMPH,WindSpeedAvgMPH,GustSpeedMaxMPH,PrecipitationSumIn
2013-1-1,30.6,18.4,2.9,28.0,11.9,-1.0,91,76,50,29.93,29.65,5,1,11,0.00
2013-1-2,16.9,5.9,-8.2,14.0,2.0,-12.0,91,84,70,30.25,29.85,8,0,11,0.00
2013-1-3,16.7,1.6,-11.6,14.0,-3.7,-16.0,93,79,58,30.26,29.91,2,0,5,0.00
2013-1-4,31.4,27.0,16.6,27.0,22.6,14.0,93,84,72,29.91,29.73,15,3,22,0.00
2013-1-5,33.4,23.9,11.2,27.0,17.2,9.0,91,77,51,30.21,29.76,8,1,18,0.01
2013-1-6,33.4,27.1,12.0,31.0,24.0,10.0,95,88,80,30.16,29.86,6,1,10,0.00
2013-1-7,31.3,20.7,12.3,22.0,15.4,10.0,92,81,58,30.34,29.95,8,1,14,0.00
2013-1-8,40.2,30.3,20.1,25.0,22.2,18.0,93,73,54,30.34,30.15,14,2,18,0.03
2013-1-9,43.0,32.6,16.2,32.0,24.2,15.0,95,73,51,30.34,29.87,15,4,26,0.06
2013-1-10,38.9,33.8,25.9,31.0,26.3,23.0,87,74,64,30.53,29.99,12,2,17,0.01
2013-1-11,40.9,30.9,20.6,38.0,26.0,19.0,93,83,51,30.52,30.06,12,2,18,0.08
2013-1-12,51.8,44.6,37.2,45.0,41.2,36.0,95,88,76,30.09,29.99,12,3,21,0.00
2013-1-13,58.6,44.0,32.9,49.0,41.2,32.0,98,91,62,30.07,29.82,17,3,19,0.00
2013-1-14,55.9,45.2,33.2,51.0,36.5,24.0,92,73,47,30.24,29.72,15,3,24,0.00
2013-1-15,36.5,30.4,25.8,26.0,22.3,20.0,85,72,57,30.30,30.21,5,0,7,0.00
2013-1-16,32.8,30.2,27.0,29.0,25.5,21.0,92,83,70,30.20,29.73,8,2,16,0.00
2013-1-17,33.0,21.5,6.3,28.0,13.1,-3.0,91,71,45,30.15,29.74,7,1,13,0.01
2013-1-18,24.3,10.0,-3.7,10.0,-0.8,-8.0,84,63,38,30.35,30.12,8,1,14,0.01
2013-1-19,43.5,31.6,20.4,26.0,20.0,10.0,91,64,49,30.21,29.69,13,6,21,0.01
2013-1-20,44.6,33.5,15.9,32.0,20.5,2.0,92,60,48,29.90,29.36,23,6,36,0.04
2013-1-21,23.5,13.8,3.6,12.0,6.0,0.0,87,72,46,30.02,29.78,4,0,8,0.00
2013-1-22,18.9,9.2,1.2,11.0,3.1,-8.0,90,76,57,30.06,29.77,7,1,13,0.01
2013-1-23,10.4,-3.0,-12.7,-3.0,-10.7,-17.0,82,71,43,30.18,30.05,5,0,11,0.00
2013-1-24,15.3,-0.3,-14.2,-3.0,-10.0,-18.0,84,66,37,30.36,30.16,8,1,13,0.00
2013-1-25,20.2,6.8,-5.5,4.0,-2.8,-10.0,83,66,44,30.38,30.10,3,0,9,0.00
2013-1-26,20.8,10.0,-0.4,7.0,2.2,-4.0,86,72,42,30.29,30.08,5,1,11,0.00
2013-1-27,27.4,11.7,2.5,7.0,1.5,-2.0,86,66,32,30.50,30.29,6,1,11,0.01
2013-1-28,24.1,16.1,3.3,22.0,11.7,-1.0,92,83,65,30.46,29.97,10,2,12,0.00
2013-1-29,38.0,29.4,21.2,35.0,26.1,19.0,92,87,78,30.15,29.94,7,1,11,0.06
2013-1-30,59.9,52.4,38.9,55.0,48.7,36.0,93,87,76,29.93,29.21,21,10,32,0.22
2013-1-31,55.3,38.7,22.5,53.0,31.3,9.0,95,75,51,29.48,28.75,20,5,36,0.62
2013-2-1,22.4,17.1,10.4,14.0,9.2,4.0,85,72,56,30.09,29.48,14,1,19,0.00
2013-2-2,20.1,14.2,5.9,14.0,8.3,3.0,89,78,61,30.16,30.01,14,2,18,0.00
2013-2-3,31.4,17.3,5.4,17.0,10.0,3.0,91,75,42,30.02,29.73,10,1,10,0.06
2013-2-4,29.1,18.0,6.0,18.0,6.9,-3.0,91,66,30,29.91,29.70,9,1,17,0.01
2013-2-5,31.6,13.9,-1.1,11.0,2.3,-5.0,84,63,31,30.02,29.88,4,0,7,0.01
2013-2-6,27.6,20.1,5.5,24.0,12.2,-5.0,89,72,54,30.36,29.85,8,1,12,0.00
2013-2-7,24.0,10.3,0.2,9.0,-1.0,-7.0,80,62,41,30.57,30.36,7,0,12,0.01
2013-2-8,24.5,21.0,16.9,20.0,15.1,3.0,88,78,50,30.40,29.90,40,8,42,0.00
2013-2-9,19.6,10.9,-1.2,16.0,5.3,-5.0,90,78,56,30.36,29.90,10,3,17,0.00
2013-2-10,37.5,13.2,-4.3,12.0,2.8,-8.0,87,68,30,30.48,30.26,5,1,7,0.17
2013-2-11,42.5,33.5,10.5,39.0,25.2,6.0,92,74,29,30.25,29.57,18,5,22,0.15
2013-2-12,37.4,34.6,30.1,32.0,28.6,26.0,88,79,69,29.81,29.55,8,1,11,0.00
2013-2-13,41.3,32.0,29.2,27.0,24.5,22.0,87,74,53,29.80,29.72,7,0,8,0.01
2013-2-14,35.8,31.1,27.7,27.0,23.2,20.0,89,74,57,29.91,29.71,5,0,12,0.00
2013-2-15,41.5,36.7,31.4,32.0,26.7,21.0,88,68,51,29.92,29.80,16,5,23,0.00
2013-2-16,35.4,27.0,18.1,24.0,15.7,7.0,84,63,44,29.96,29.88,9,1,11,0.00
2013-2-17,18.0,12.8,10.4,8.0,5.4,2.0,85,72,62,29.88,29.66,13,3,19,0.00
2013-2-18,28.8,15.3,5.8,4.0,1.5,-3.0,76,57,26,30.15,29.84,5,2,15,0.00
2013-2-19,43.2,29.2,10.9,33.0,18.0,3.0,96,66,36,30.13,29.57,12,3,19,0.07
2013-2-20,32.7,26.9,21.5,32.0,23.1,18.0,95,85,71,29.74,29.57,5,0,10,0.10
2013-2-21,21.5,17.0,9.3,18.0,11.4,5.0,89,79,63,30.38,29.75,8,1,13,0.00
2013-2-22,35.4,26.5,11.7,25.0,19.8,9.0,92,77,60,30.43,30.20,9,2,12,0.11
2013-2-23,34.5,33.0,31.5,30.0,26.6,22.0,90,77,65,30.20,29.86,17,6,21,0.00
2013-2-24,37.2,33.3,30.4,35.0,30.6,29.0,95,90,78,29.92,29.74,10,2,16,0.07
2013-2-25,35.8,31.7,29.6,33.0,30.3,29.0,97,94,87,30.21,29.93,3,0,5,0.06
2013-2-26,43.6,35.0,28.9,31.0,29.1,27.0,96,80,58,30.29,30.07,10,2,23,0.03
2013-2-27,37.3,35.0,32.6,34.0,30.6,27.0,91,84,73,30.06,29.60,34,8,39,0.12
2013-2-28,45.9,36.5,32.1,35.0,32.6,30.0,95,86,65,29.60,29.52,8,1,14,0.02
2013-3-1,34.9,31.3,29.4,32.0,28.9,28.0,96,90,76,29.73,29.57,6,2,13,0.00
2013-3-2,31.3,27.4,22.3,28.0,25.2,20.0,96,91,82,29.76,29.71,6,1,10,0.00
2013-3-3,30.6,25.2,21.7,26.0,22.5,20.0,93,89,81,29.73,29.66,4,1,7,0.01
2013-3-4,28.8,24.1,22.4,23.0,20.9,20.0,94,88,72,29.88,29.68,7,0,11,0.00
2013-3-5,34.8,27.1,20.9,28.0,24.0,19.0,95,88,76,30.09,29.89,6,0,9,0.06
2013-3-6,45.2,32.9,20.6,33.0,25.7,19.0,95,76,56,30.17,30.07,8,1,13,0.21
2013-3-7,38.0,32.5,28.8,26.0,24.2,22.0,84,72,62,30.16,30.12,9,2,11,0.04
2013-3-8,43.5,31.7,24.7,29.0,25.3,22.0,90,78,54,30.31,30.12,8,2,15,0.02
2013-3-9,54.5,33.9,18.1,30.0,24.5,16.0,93,72,37,30.35,30.27,4,1,8,0.01
2013-3-10,55.2,41.7,24.3,27.0,23.4,19.0,92,55,25,30.31,30.10,13,4,23,0.00
2013-3-11,53.7,50.2,46.3,32.0,26.9,23.0,51,41,33,30.15,29.89,18,6,28,0.00
2013-3-12,50.6,46.8,35.3,48.0,42.5,32.0,97,86,50,29.91,29.63,16,7,25,1.14
2013-3-13,40.5,34.7,28.7,37.0,32.3,28.0,98,91,67,29.79,29.71,5,0,7,0.01
2013-3-14,30.7,24.6,16.4,28.0,18.4,8.0,95,78,60,29.88,29.70,6,1,14,0.02
2013-3-15,31.0,23.2,12.2,28.0,15.1,7.0,93,72,44,29.89,29.56,11,2,21,0.02
2013-3-16,32.0,22.9,13.1,22.0,15.3,10.0,88,74,52,29.90,29.71,7,1,14,0.03
2013-3-17,30.3,16.6,6.5,17.0,8.0,3.0,90,71,40,30.35,29.90,8,1,15,0.01
2013-3-18,38.4,22.7,5.0,21.0,6.1,1.0,84,54,30,30.44,30.10,20,3,33,0.04
2013-3-19,31.4,28.8,26.5,28.0,25.5,21.0,94,87,77,30.09,29.70,33,8,44,0.00
2013-3-20,33.3,27.4,21.2,27.0,22.7,17.0,95,83,62,29.70,29.62,8,2,12,0.06
2013-3-21,35.6,27.2,20.3,21.0,16.9,14.0,86,66,46,29.71,29.61,11,2,14,0.01
2013-3-22,39.2,26.2,14.8,26.0,19.3,12.0,90,77,48,29.73,29.63,9,1,10,0.00
2013-3-23,38.6,31.3,24.7,24.0,23.0,20.0,93,72,53,29.79,29.65,7,2,18,0.08
2013-3-24,40.7,32.9,23.1,28.0,25.2,20.0,92,74,56,29.84,29.77,10,1,13,0.03
2013-3-25,47.5,32.3,17.7,31.0,24.0,16.0,93,74,46,29.80,29.55,6,1,9,0.00
2013-3-26,46.9,36.6,29.6,30.0,26.4,23.0,84,68,44,29.79,29.59,6,1,13,0.00
2013-3-27,50.7,38.3,28.8,33.0,28.5,25.0,93,70,46,29.92,29.75,6,2,14,0.00
2013-3-28,51.3,38.8,32.6,41.0,34.4,32.0,97,85,58,30.04,29.90,4,0,8,0.13
2013-3-29,49.4,40.0,34.6,39.0,33.9,30.0,97,80,55,30.05,29.99,8,1,11,0.01
2013-3-30,55.6,39.2,27.7,33.0,25.0,18.0,95,63,25,30.09,30.02,7,1,14,0.00
2013-3-31,53.8,41.8,26.1,38.0,25.6,21.0,88,57,30,30.07,29.69,18,6,24,0.02
2013-4-1,44.0,37.9,28.3,40.0,30.3,15.0,94,76,42,29.74,29.47,13,4,19,0.10
2013-4-2,33.9,27.7,22.9,20.0,14.6,9.0,85,59,40,29.86,29.74,15,2,22,0.00
2013-4-3,44.1,32.3,23.9,19.0,13.4,9.0,63,47,26,30.17,29.86,12,3,19,0.00
2013-4-4,50.3,37.8,25.7,22.0,16.6,11.0,59,44,31,30.23,29.87,14,4,27,0.00
2013-4-5,50.3,39.8,30.3,32.0,22.6,16.0,76,51,39,29.93,29.75,13,3,18,0.00
2013-4-6,44.9,32.3,22.2,16.0,10.9,7.0,58,43,23,30.27,29.94,13,3,20,0.00
2013-4-7,57.9,47.7,30.4,37.0,25.2,12.0,61,43,29,30.22,29.78,26,9,34,0.01
2013-4-8,60.0,47.1,39.2,38.0,33.8,31.0,78,62,36,30.11,29.84,12,1,15,0.00
2013-4-9,55.8,48.3,41.5,49.0,41.9,35.0,96,79,54,29.99,29.74,13,2,18,0.12
2013-4-10,49.6,44.0,40.8,45.0,41.7,40.0,98,92,77,29.98,29.89,3,0,6,0.22
2013-4-11,40.9,35.8,30.3,40.0,26.8,18.0,97,72,50,30.17,29.90,5,1,11,0.00
2013-4-12,35.7,33.0,30.7,31.0,26.6,19.0,88,78,55,30.15,29.77,22,8,42,0.00
2013-4-13,48.0,40.5,35.1,39.0,35.2,31.0,96,82,67,29.88,29.74,9,3,23,0.44
2013-4-14,45.1,38.2,30.2,39.0,34.4,29.0,96,86,64,30.20,29.85,4,0,12,0.15
2013-4-15,61.0,43.9,27.3,37.0,32.3,26.0,95,68,38,30.33,30.18,11,2,13,0.01
2013-4-16,58.0,53.9,49.1,53.0,43.9,35.0,93,70,53,30.20,29.89,22,9,32,0.08
2013-4-17,58.9,47.0,33.2,42.0,34.5,29.0,88,64,38,30.32,30.03,9,2,18,0.00
2013-4-18,62.0,49.2,30.6,49.0,34.8,26.0,91,60,44,30.32,29.88,23,8,36,0.02
2013-4-19,73.9,64.4,47.2,59.0,54.5,45.0,95,71,53,29.86,29.40,32,12,40,0.90
2013-4-20,50.1,42.3,33.4,44.0,30.4,19.0,93,65,42,30.24,29.61,19,3,26,0.02
2013-4-21,50.9,37.0,27.5,26.0,19.1,13.0,70,51,26,30.66,30.24,7,2,13,0.00
2013-4-22,55.4,41.2,23.2,25.0,19.8,16.0,86,47,25,30.68,30.50,18,6,30,0.00
2013-4-23,51.3,42.5,33.9,39.0,31.2,23.0,81,65,52,30.51,30.10,17,7,28,0.00
2013-4-24,73.1,56.5,33.1,53.0,41.0,31.0,96,62,23,30.10,29.59,15,5,26,0.03
2013-4-25,62.1,47.4,34.3,53.0,33.8,26.0,88,61,33,30.26,29.59,14,2,23,0.09
2013-4-26,56.5,44.4,32.2,44.0,32.3,25.0,88,64,44,30.43,30.25,10,2,18,0.03
2013-4-27,66.6,47.5,30.2,40.0,31.5,23.0,93,60,21,30.43,30.27,6,1,10,0.00
2013-4-28,74.8,54.9,34.5,42.0,34.6,29.0,81,51,26,30.29,30.08,14,2,17,0.00
2013-4-29,63.9,56.6,45.6,45.0,41.0,37.0,80,57,40,30.15,30.09,12,4,18,0.00
2013-4-30,69.2,59.6,51.4,49.0,44.7,40.0,79,59,45,30.23,30.15,8,2,16,0.00
2013-5-1,83.3,63.5,44.1,47.0,42.7,38.0,83,52,22,30.39,30.23,7,2,13,0.00
2013-5-2,86.6,66.9,46.4,49.0,42.5,35.0,73,44,25,30.39,30.25,17,3,30,0.00
2013-5-3,72.2,58.5,46.9,41.0,36.5,28.0,71,46,27,30.43,30.27,13,4,24,0.00
2013-5-4,80.5,61.6,43.1,50.0,43.5,38.0,89,56,26,30.30,30.13,7,1,14,0.00
2013-5-5,83.1,64.9,46.4,46.0,39.5,34.0,73,43,23,30.19,30.05,5,1,10,0.00
2013-5-6,78.9,62.8,46.5,50.0,37.7,25.0,68,43,19,30.14,29.99,8,2,14,0.00
2013-5-7,87.6,67.7,48.0,54.0,43.6,26.0,86,48,13,30.08,29.97,5,1,9,0.00
2013-5-8,77.9,63.6,52.0,59.0,53.3,42.0,92,72,40,30.09,29.96,21,4,24,0.17
2013-5-9,68.7,61.5,53.3,62.0,56.5,52.0,98,84,66,29.95,29.80,9,2,12,0.29
2013-5-10,76.2,61.1,51.4,63.0,56.5,50.0,98,86,57,29.95,29.75,4,1,9,0.05
2013-5-11,68.2,61.5,51.2,61.0,56.8,49.0,95,85,64,29.75,29.55,16,5,21,0.30
2013-5-12,60.7,51.2,40.7,50.0,42.3,28.0,97,74,36,29.73,29.57,9,1,16,0.02
2013-5-13,51.3,42.8,36.9,37.0,30.7,27.0,90,63,47,30.02,29.71,14,4,23,0.00
2013-5-14,58.7,45.1,32.6,40.0,32.8,27.0,97,67,36,30.08,29.96,5,1,15,0.00
2013-5-15,63.3,46.6,31.2,50.0,37.2,29.0,91,74,35,30.01,29.56,23,4,26,0.02
2013-5-16,77.7,58.0,46.4,49.0,44.0,37.0,95,64,27,29.84,29.57,10,2,24,0.00
2013-5-17,67.9,53.7,42.7,47.0,42.5,39.0,95,69,40,30.18,29.85,9,1,14,0.01
2013-5-18,77.1,57.6,38.3,52.0,41.5,34.0,96,61,24,30.26,30.16,5,1,9,0.00
2013-5-19,69.8,56.6,45.6,55.0,50.2,41.0,96,80,54,30.22,30.06,12,2,16,0.27
2013-5-20,68.1,60.6,55.8,63.0,57.7,54.0,97,90,81,30.06,29.93,8,1,16,0.00
2013-5-21,73.8,64.2,56.0,67.0,60.1,55.0,99,87,62,29.94,29.75,15,2,20,0.77
2013-5-22,78.4,68.0,56.0,70.0,64.1,54.0,96,88,66,29.82,29.68,11,3,20,0.56
2013-5-23,77.2,68.8,60.8,69.0,63.9,60.0,98,85,63,29.71,29.64,13,4,21,0.55
2013-5-24,60.5,48.0,43.0,60.0,47.1,42.0,98,97,96,29.97,29.64,11,2,14,1.00
2013-5-25,43.5,41.0,37.1,43.0,40.3,36.0,98,97,95,29.97,29.87,13,3,18,1.52
2013-5-26,47.7,41.9,36.8,45.0,40.8,36.0,98,96,88,30.07,29.82,11,2,17,0.28
2013-5-27,68.8,50.5,33.9,49.0,39.9,33.0,99,72,35,30.16,30.04,9,2,13,0.00
2013-5-28,73.3,56.6,38.3,51.0,43.4,37.0,95,66,35,30.19,30.06,9,2,16,0.00
2013-5-29,69.0,61.4,54.5,65.0,57.8,46.0,97,88,60,30.05,29.88,11,3,19,0.35
2013-5-30,86.2,71.4,57.5,70.0,64.1,57.0,99,80,51,30.03,29.93,5,1,10,0.00
2013-5-31,87.4,74.4,59.9,69.0,63.8,59.0,97,72,49,30.02,29.83,11,3,16,0.00
2013-6-1,86.7,74.9,61.7,69.0,65.5,61.0,98,75,52,29.88,29.73,12,3,20,0.09
2013-6-2,83.5,70.7,61.2,72.0,67.0,60.0,99,88,63,29.78,29.60,13,3,22,0.38
2013-6-3,71.5,60.7,47.9,60.0,54.7,44.0,99,82,51,29.83,29.71,6,1,12,0.00
2013-6-4,66.3,53.1,42.5,50.0,45.4,41.0,95,77,53,30.08,29.82,8,1,16,0.00
2013-6-5,74.7,58.0,42.4,51.0,45.7,41.0,96,68,31,30.17,30.08,5,1,10,0.00
2013-6-6,68.6,57.4,48.6,56.0,49.0,37.0,92,75,43,30.13,30.01,9,2,14,0.03
2013-6-7,55.3,53.2,50.8,52.0,49.7,46.0,94,87,82,30.03,29.82,22,7,31,0.27
2013-6-8,60.4,56.7,52.1,59.0,55.2,51.0,98,95,88,29.99,29.73,8,1,16,0.12
2013-6-9,59.4,56.1,54.8,58.0,55.6,54.0,99,98,96,30.07,29.98,2,0,3,0.01
2013-6-15,56.2,53.4,51.5,48.0,47.4,47.0,85,80,74,29.88,29.87,2,1,5,0.00
2013-6-16,68.7,59.5,49.4,62.0,54.3,47.0,97,84,56,29.88,29.65,7,2,14,0.22
2013-6-17,72.2,62.5,52.7,66.0,59.1,52.0,99,89,61,29.90,29.72,9,1,12,0.45
2013-6-18,71.1,57.0,47.6,56.0,51.2,46.0,99,83,50,29.95,29.88,5,1,8,0.01
2013-6-19,70.6,56.1,41.8,51.0,46.2,41.0,98,73,44,30.15,29.96,6,1,12,0.00
2013-6-20,78.5,59.6,42.4,56.0,47.9,41.0,97,69,37,30.22,30.14,8,1,10,0.00
2013-6-21,85.3,65.1,49.0,62.0,54.2,48.0,95,71,38,30.21,30.15,4,1,9,0.00
2013-6-22,79.1,66.9,57.5,68.0,62.4,55.0,97,86,63,30.16,30.03,8,1,12,0.10
2013-6-23,84.7,72.0,65.2,74.0,68.8,65.0,98,90,66,30.04,29.89,9,2,14,0.60
2013-6-24,85.4,73.6,65.7,76.0,69.5,65.0,99,88,61,29.94,29.82,12,1,15,1.17
2013-6-25,85.6,70.7,62.9,73.0,67.5,62.0,99,90,62,29.87,29.69,9,1,15,2.10
2013-6-26,78.5,68.3,63.6,71.0,66.5,63.0,99,94,73,29.75,29.69,4,0,9,0.49
2013-6-27,86.9,73.6,62.8,75.0,68.1,62.0,99,84,51,29.74,29.64,11,1,11,0.00
2013-6-28,76.0,67.0,62.5,72.0,64.1,60.0,97,90,74,29.64,29.35,19,2,27,0.55
2013-6-29,78.6,67.7,61.2,68.0,64.3,61.0,98,89,62,29.62,29.43,9,1,15,0.28
2013-6-30,84.0,71.1,62.3,71.0,65.4,62.0,99,84,57,29.87,29.62,8,1,11,0.38
2013-7-1,74.3,67.9,62.6,70.0,66.4,61.0,99,94,85,30.02,29.87,4,0,7,0.29
2013-7-2,81.3,69.8,61.1,74.0,67.1,61.0,99,91,74,30.07,30.00,4,0,10,0.92
2013-7-3,83.0,72.6,67.8,74.0,70.5,68.0,100,94,72,30.11,30.04,5,1,13,1.80
2013-7-4,86.8,73.9,66.4,77.0,71.4,66.0,100,92,67,30.13,30.02,12,1,17,0.69
2013-7-5,85.7,74.6,65.4,77.0,71.1,65.0,100,89,69,30.09,29.98,8,1,21,0.04
2013-7-6,87.4,74.7,64.3,76.0,69.7,63.0,99,85,52,30.02,29.93,5,0,8,0.05
2013-7-7,84.0,73.9,62.2,74.0,68.9,61.0,97,85,59,29.98,29.87,4,1,10,0.01
2013-7-8,79.9,71.1,67.2,73.0,69.9,67.0,100,96,77,29.99,29.87,2,0,5,0.75
2013-7-9,86.8,74.0,64.4,77.0,69.2,64.0,100,86,60,30.02,29.92,8,1,13,0.00
2013-7-10,78.9,74.3,70.8,74.0,70.3,68.0,94,87,81,29.92,29.66,13,4,21,0.03
2013-7-11,79.6,70.7,59.2,71.0,66.0,58.0,98,86,60,29.97,29.66,4,1,13,0.09
2013-7-12,81.9,67.0,54.1,65.0,60.1,54.0,99,81,51,30.16,29.97,6,1,8,0.00
2013-7-13,79.7,69.4,56.7,69.0,62.9,56.0,99,82,57,30.24,30.16,15,2,15,0.00
2013-7-14,89.5,75.7,66.1,75.0,70.5,65.0,98,85,58,30.26,30.16,4,0,4,0.00
2013-7-15,92.9,77.1,67.0,77.0,69.1,66.0,99,79,46,30.18,30.08,3,1,9,0.00
2013-7-16,90.8,77.1,64.6,75.0,68.8,64.0,97,78,51,30.17,30.11,5,1,10,0.00
2013-7-17,90.4,77.6,65.3,75.0,70.5,64.0,97,80,56,30.14,29.90,9,2,11,0.01
2013-7-18,90.1,75.8,66.7,77.0,71.2,66.0,99,87,61,29.97,29.86,10,1,14,0.16
2013-7-19,91.3,77.9,68.9,78.0,72.4,68.0,100,84,56,29.86,29.59,13,3,23,0.20
2013-7-20,76.4,72.2,69.3,69.0,67.3,66.0,98,85,75,29.65,29.59,9,2,12,0.01
2013-7-27,72.4,64.9,60.5,62.0,59.9,58.0,93,84,69,29.93,29.91,3,1,4,0.01
2013-7-28,75.8,69.5,60.0,68.0,64.0,58.0,97,83,70,29.92,29.84,11,2,21,0.78
2013-7-29,77.7,69.5,61.5,71.0,63.8,58.0,99,84,51,30.03,29.88,8,1,12,0.80
2013-7-30,78.0,65.3,55.9,63.0,58.5,55.0,98,81,52,30.08,30.01,5,1,11,0.01
2013-7-31,80.1,67.3,53.9,67.0,59.0,53.0,98,77,43,30.10,29.97,7,1,11,0.01
2013-8-1,75.9,66.2,58.3,65.0,61.9,57.0,96,86,66,29.97,29.77,11,2,17,0.29
2013-8-2,82.2,67.8,58.5,68.0,61.2,56.0,99,81,45,29.79,29.73,9,1,12,0.00
2013-8-3,75.0,64.5,57.1,63.0,58.7,56.0,96,82,58,29.80,29.70,9,1,13,0.11
2013-8-4,73.3,61.2,54.0,64.0,57.5,54.0,99,88,60,29.89,29.77,7,1,20,0.50
2013-8-5,72.3,59.8,47.6,56.0,50.6,43.0,99,75,38,30.02,29.90,6,1,11,0.04
2013-8-6,74.1,61.0,48.3,61.0,52.8,47.0,97,77,48,30.08,30.02,9,1,11,0.00
2013-8-7,77.9,66.9,53.2,62.0,58.8,52.0,97,77,56,30.08,29.94,12,4,18,0.00
2013-8-8,82.1,71.9,65.6,71.0,66.5,62.0,98,83,66,29.94,29.88,12,3,22,0.05
2013-8-9,76.5,70.0,66.5,74.0,69.3,66.0,99,97,87,29.89,29.71,5,0,21,1.31
2013-8-10,76.8,66.0,54.8,67.0,57.9,53.0,99,78,45,29.99,29.74,6,1,14,0.00
2013-8-11,78.4,64.0,51.1,59.0,55.4,50.0,97,76,49,30.04,29.94,5,1,9,0.00
2013-8-12,75.6,64.6,51.9,65.0,57.9,51.0,97,81,55,29.98,29.85,6,1,11,0.00
2013-8-13,72.5,63.8,58.5,65.0,61.7,58.0,98,93,76,29.85,29.62,9,1,15,0.23
2013-8-14,66.1,59.6,53.7,62.0,56.7,53.0,99,90,72,29.90,29.63,7,1,13,0.29
2013-8-15,71.9,58.4,45.9,57.0,51.8,45.0,99,81,51,30.07,29.93,8,2,16,0.01
2013-8-16,79.0,62.3,48.5,63.0,55.4,48.0,98,81,51,30.17,30.05,7,1,14,0.08
2013-8-17,81.5,64.3,52.0,65.0,57.8,52.0,99,82,52,30.25,30.18,6,1,8,0.00
2013-8-18,82.2,64.6,53.2,66.0,58.4,53.0,98,82,50,30.23,30.04,4,1,8,0.00
2013-8-19,84.5,67.2,53.7,67.0,60.1,53.0,99,81,51,30.05,29.91,4,1,8,0.01
2013-8-20,83.6,68.7,56.2,68.0,61.6,55.0,98,81,51,30.05,29.96,5,1,9,0.00
2013-8-21,83.7,70.9,58.4,69.0,64.0,58.0,98,81,50,30.09,29.94,8,1,11,0.00
2013-8-22,84.0,70.8,61.0,70.0,65.0,60.0,98,84,56,29.96,29.76,9,2,16,1.07
2013-8-23,74.4,63.2,50.7,65.0,57.1,50.0,98,83,52,30.15,29.83,7,1,11,0.00
2013-8-24,81.6,60.7,45.0,61.0,51.4,45.0,98,75,38,30.32,30.15,5,1,8,0.01
2013-8-25,79.1,63.1,48.2,63.0,54.8,47.0,98,78,42,30.33,30.09,9,1,10,0.02
2013-8-26,73.2,66.5,60.6,69.0,64.4,60.0,98,93,82,30.10,29.83,5,0,8,0.45
2013-8-27,85.4,71.8,66.3,75.0,69.0,66.0,100,91,62,29.87,29.81,4,0,7,0.01
2013-8-28,86.5,72.8,63.2,75.0,68.3,63.0,99,87,64,29.89,29.80,8,0,13,0.00
2013-8-29,84.8,70.1,62.0,70.0,64.8,61.0,97,84,62,30.00,29.89,8,2,14,0.00
2013-8-30,82.8,71.0,59.6,72.0,65.9,59.0,99,85,60,29.95,29.71,6,1,10,0.00
2013-8-31,74.9,69.9,66.4,73.0,68.7,66.0,99,96,90,29.75,29.69,4,0,8,0.23
2013-9-1,85.5,72.6,65.4,73.0,68.5,65.0,99,88,60,29.82,29.74,2,0,7,0.01
2013-9-2,78.9,71.2,62.1,71.0,67.6,62.0,98,88,70,29.77,29.61,10,2,15,0.28
2013-9-3,74.2,63.9,59.1,63.0,60.9,59.0,100,90,66,29.76,29.65,7,1,13,0.17
2013-9-4,76.6,63.0,54.4,64.0,59.2,54.0,99,88,60,29.87,29.77,11,1,14,0.24
2013-9-5,66.9,56.0,42.2,59.0,49.1,41.0,98,80,48,30.14,29.84,5,1,13,0.02
2013-9-6,66.7,51.8,38.6,50.0,43.8,38.0,98,78,43,30.23,30.03,8,1,11,0.01
2013-9-7,69.3,58.5,48.8,58.0,51.9,47.0,96,80,51,30.03,29.80,10,1,15,0.01
2013-9-8,62.2,54.3,42.2,55.0,48.4,41.0,98,82,55,30.07,29.73,13,1,16,0.35
2013-9-9,68.2,53.3,38.5,52.0,44.7,38.0,98,75,46,30.17,30.02,14,2,16,0.00
2013-9-10,74.0,65.9,57.7,71.0,62.3,52.0,98,88,79,30.04,29.92,14,2,15,0.76
2013-9-11,88.0,77.7,69.8,78.0,72.2,66.0,95,84,65,29.96,29.83,13,3,22,0.08
2013-9-12,78.0,70.5,65.3,73.0,67.4,65.0,98,90,76,29.85,29.57,10,1,14,0.13
2013-9-13,65.4,56.8,51.0,65.0,56.4,51.0,99,98,96,29.82,29.56,5,1,12,0.76
2013-9-14,61.7,52.1,44.7,56.0,50.4,44.0,99,94,73,30.05,29.81,4,0,8,0.10
2013-9-15,44.7,42.3,40.4,44.0,41.8,40.0,99,98,98,30.08,30.05,2,1,4,0.01
2013-9-20,70.7,62.1,56.6,59.0,57.2,55.0,94,85,65,29.89,29.87,4,1,8,0.00
2013-9-21,74.3,66.7,57.2,61.0,56.1,46.0,93,70,37,29.88,29.52,17,8,26,0.05
2013-9-22,63.6,54.8,46.0,60.0,52.3,43.0,98,91,78,29.85,29.51,7,1,17,0.79
2013-9-23,50.3,46.1,42.3,44.0,41.9,39.0,93,85,73,30.02,29.85,5,1,10,0.00
2013-9-24,63.5,51.1,44.2,49.0,43.9,40.0,96,77,52,30.01,29.88,6,1,12,0.00
2013-9-25,68.5,52.5,40.5,55.0,47.2,40.0,98,84,58,29.98,29.90,10,1,10,0.00
2013-9-26,64.1,50.4,37.4,54.0,46.3,37.0,99,87,64,30.15,29.99,6,1,8,0.01
2013-9-27,71.6,55.6,47.1,56.0,51.0,46.0,97,85,55,30.27,30.14,7,1,10,0.00
2013-9-28,79.3,57.3,42.4,62.0,51.1,42.0,99,83,48,30.33,30.21,3,1,8,0.01
2013-9-29,80.1,58.8,46.9,62.0,53.0,46.0,99,83,49,30.21,30.02,4,1,6,0.01
2013-9-30,79.8,59.2,45.8,60.0,52.3,45.0,99,81,45,30.05,29.93,5,1,7,0.01
2013-10-1,80.6,60.8,45.9,62.0,54.2,45.0,99,82,49,29.96,29.83,3,1,6,0.00
2013-10-2,78.1,60.5,49.1,63.0,55.2,49.0,99,84,53,29.94,29.79,8,1,15,0.01
2013-10-3,78.8,58.3,45.4,56.0,50.2,44.0,96,78,39,30.07,29.94,5,1,9,0.00
2013-10-4,70.7,55.1,45.4,58.0,51.9,45.0,98,89,63,30.07,30.01,3,0,6,0.01
2013-10-5,63.6,56.2,50.0,55.0,52.3,49.0,97,87,68,30.11,30.04,4,0,7,0.01
2013-10-6,57.2,54.5,50.3,53.0,46.4,37.0,94,76,50,30.11,29.97,17,6,27,0.14
2013-10-7,72.7,60.9,52.8,64.0,56.4,49.0,96,85,68,29.96,29.51,21,6,35,0.68
2013-10-8,60.1,48.9,38.6,48.0,42.6,37.0,93,80,48,30.36,29.84,7,1,14,0.01
2013-10-9,72.9,48.8,33.3,49.0,40.1,32.0,99,76,37,30.43,30.32,4,1,11,0.00
2013-10-10,69.2,50.8,37.4,51.0,43.3,36.0,95,78,46,30.32,30.16,3,1,7,0.00
2013-10-11,78.9,54.8,40.7,55.0,46.0,39.0,96,76,40,30.16,30.09,5,1,8,0.00
2013-10-12,71.6,55.5,40.1,55.0,47.8,39.0,98,78,49,30.30,30.15,11,3,17,0.00
2013-10-13,74.9,57.2,44.6,55.0,48.3,43.0,97,74,46,30.35,30.25,9,2,15,0.00
2013-10-14,57.5,55.3,50.1,56.0,52.5,47.0,99,90,75,30.27,30.20,7,1,12,0.14
2013-10-15,65.4,56.0,47.2,60.0,53.2,47.0,100,91,70,30.24,30.05,6,1,12,0.00
2013-10-16,65.4,60.3,56.1,55.0,51.5,47.0,88,74,52,30.05,29.76,18,5,24,0.01
2013-10-17,64.5,57.4,49.6,56.0,52.7,47.0,96,85,63,29.79,29.64,9,1,17,0.26
2013-10-18,64.5,53.9,48.1,56.0,47.1,36.0,98,80,54,29.85,29.55,11,2,17,0.58
2013-10-19,60.7,51.0,38.9,47.0,43.1,37.0,96,76,58,29.87,29.60,10,3,16,0.08
2013-10-20,54.5,49.3,39.1,48.0,39.9,34.0,92,71,49,29.96,29.59,14,3,18,0.03
2013-10-21,61.2,48.8,34.3,45.0,39.7,33.0,97,74,51,30.03,29.83,11,3,20,0.00
2013-10-22,57.5,48.8,34.4,48.0,40.8,31.0,95,75,52,29.82,29.64,13,4,19,0.20
2013-10-23,55.6,41.4,32.0,39.0,34.3,31.0,95,78,43,29.74,29.59,10,1,10,0.01
2013-10-24,44.3,37.4,30.9,38.0,33.8,28.0,96,87,69,29.84,29.64,12,1,22,0.16
2013-10-25,45.9,38.5,35.4,36.0,31.6,29.0,94,77,55,30.10,29.85,4,0,10,0.02
2013-10-26,45.3,38.9,30.1,36.0,32.7,28.0,92,79,56,30.09,29.76,19,5,21,0.02
2013-10-27,47.7,42.1,32.5,39.0,33.4,30.0,89,72,57,29.99,29.71,13,2,18,0.00
2013-10-28,44.7,37.3,26.9,39.0,30.9,24.0,92,78,57,30.36,29.97,11,2,18,0.08
2013-10-29,51.4,32.4,21.5,32.0,24.4,20.0,94,75,37,30.46,30.33,3,1,7,0.00
2013-10-30,44.9,35.0,28.1,36.0,30.7,24.0,95,84,69,30.32,30.16,5,0,8,0.01
2013-10-31,59.8,48.4,33.8,57.0,45.8,32.0,97,91,74,30.20,29.56,16,6,25,0.27
2013-11-1,65.8,60.7,52.4,60.0,52.7,42.0,92,76,49,29.57,29.21,23,10,32,0.23
2013-11-2,53.5,45.7,35.0,46.0,41.3,33.0,95,85,70,29.85,29.55,9,1,11,0.10
2013-11-3,42.0,31.7,22.8,32.0,22.8,17.0,92,71,44,30.47,29.85,9,2,16,0.00
2013-11-4,45.6,29.0,18.1,25.0,20.0,16.0,92,72,36,30.68,30.48,3,0,7,0.00
2013-11-5,49.3,41.1,27.0,36.0,27.1,17.0,76,58,48,30.64,30.39,12,4,21,0.00
2013-11-6,57.5,51.6,46.1,46.0,41.4,36.0,73,68,59,30.39,29.81,18,7,29,0.00
2013-11-7,56.9,46.2,33.4,52.0,42.1,26.0,94,86,70,29.83,29.66,16,4,24,0.53
2013-11-8,38.9,34.6,30.7,31.0,27.4,24.0,92,75,66,30.07,29.79,8,1,13,0.01
2013-11-9,45.7,36.4,30.8,33.0,26.0,23.0,91,67,49,30.16,29.90,15,2,16,0.01
2013-11-10,44.2,39.3,34.6,39.0,36.1,32.0,95,88,78,29.89,29.66,11,2,17,0.26
2013-11-11,41.2,36.6,31.7,35.0,31.1,29.0,93,81,67,30.07,29.80,15,3,21,0.11
2013-11-12,31.2,26.2,23.5,29.0,21.0,18.0,94,81,72,30.23,29.89,9,2,12,0.00
2013-11-13,32.6,26.4,18.8,23.0,17.2,14.0,82,69,50,30.30,30.02,12,2,16,0.11
2013-11-14,42.3,35.1,30.5,31.0,26.4,22.0,86,71,61,30.03,29.98,10,2,16,0.03
2013-11-15,53.7,40.0,30.6,28.0,25.0,22.0,82,58,31,30.15,30.03,7,1,15,0.00
2013-11-16,56.4,43.1,35.5,35.0,29.8,26.0,82,62,35,30.25,30.13,9,2,13,0.00
2013-11-17,54.7,48.3,37.0,50.0,42.4,32.0,91,80,61,30.21,29.63,14,5,27,0.05
2013-11-18,61.0,50.8,39.7,58.0,42.5,29.0,92,74,52,29.62,29.32,19,6,31,0.32
2013-11-19,40.2,31.2,27.2,29.0,21.6,19.0,83,68,56,30.34,29.59,16,3,19,0.00
2013-11-20,41.9,28.2,20.2,24.0,20.2,18.0,90,74,44,30.63,30.34,7,1,10,0.04
2013-11-21,43.6,31.4,16.5,29.0,18.0,9.0,92,63,26,30.61,30.32,12,2,18,0.00
2013-11-22,43.5,39.8,36.2,41.0,37.1,28.0,97,90,71,30.32,29.78,10,1,12,0.08
2013-11-23,42.3,30.7,19.6,40.0,24.3,14.0,93,77,59,29.94,29.72,10,2,15,0.02
2013-11-24,19.5,16.0,13.7,16.0,12.3,10.0,91,85,78,30.00,29.82,7,2,14,0.00
2013-12-1,32.5,29.6,28.7,32.0,24.6,-99.9,97,92,95,30.05,30.00,1,-42,3,0.00
2013-12-2,37.7,32.3,28.5,36.0,31.6,28.0,98,96,91,30.00,29.87,1,0,3,0.02
2013-12-3,47.2,34.0,28.6,39.0,31.4,28.0,99,90,71,29.98,29.88,4,0,7,0.02
2013-12-4,42.2,31.5,25.8,33.0,27.4,24.0,94,85,62,30.13,29.98,3,0,5,0.00
2013-12-5,56.1,45.9,27.5,52.0,42.5,26.0,97,88,79,30.11,29.79,20,6,26,0.00
2013-12-6,53.2,37.1,32.1,51.0,34.9,28.0,98,91,80,30.11,29.83,4,0,9,0.64
2013-12-7,34.4,28.2,22.5,29.0,19.6,16.0,87,71,49,30.43,30.07,7,1,14,0.00
2013-12-8,29.3,24.3,20.9,17.0,14.1,11.0,77,65,55,30.56,30.43,14,1,14,0.00
2013-12-9,38.6,30.5,23.8,35.0,24.6,13.0,91,79,60,30.43,29.81,23,8,45,0.00
2013-12-10,35.6,28.9,21.0,31.0,19.1,8.0,82,67,54,29.89,29.75,8,1,10,0.01
2013-12-11,24.7,20.5,13.0,19.0,13.8,8.0,90,76,60,30.15,29.90,7,1,13,0.00
2013-12-12,20.7,13.2,3.4,11.0,5.8,0.0,90,74,49,30.28,29.93,13,3,22,0.00
2013-12-13,17.8,11.4,-2.5,13.0,6.1,-6.0,88,79,70,30.43,29.87,11,2,14,0.00
2013-12-14,13.2,4.6,-4.7,9.0,-2.1,-8.0,86,75,51,30.60,30.11,20,4,42,0.00
2013-12-15,25.1,19.9,10.6,21.0,16.9,9.0,93,88,80,30.09,29.52,31,4,48,0.00
2013-12-16,22.4,10.0,-6.1,15.0,4.0,-10.0,93,78,53,30.24,29.67,5,1,8,0.00
2013-12-17,15.4,3.6,-12.5,12.0,-0.6,-17.0,90,83,72,30.25,30.01,11,1,13,0.00
2013-12-18,34.5,20.5,11.2,24.0,17.0,9.0,93,86,65,30.00,29.91,7,1,12,0.00
2013-12-19,34.5,29.6,23.1,29.0,24.5,21.0,93,82,67,30.05,29.88,11,1,13,0.00
2013-12-20,39.0,32.1,26.3,37.0,30.4,25.0,96,93,88,30.05,29.84,8,0,11,0.00
2013-12-21,51.5,37.0,26.8,48.0,33.5,-99.9,99,92,86,29.93,29.75,12,-8,18,0.30
2013-12-22,37.4,29.7,26.5,37.0,27.8,-99.9,98,96,95,29.93,29.70,9,-9,14,0.00
2013-12-23,37.0,32.0,26.0,37.0,31.5,25.0,99,98,95,30.13,29.92,4,1,7,0.01
2013-12-24,27.0,17.9,6.3,25.0,14.6,3.0,95,87,71,30.31,30.11,4,1,16,0.00
2013-12-25,21.7,9.7,-0.8,12.0,5.1,-4.0,91,82,60,30.54,30.32,4,0,9,0.00
2013-12-26,26.9,22.7,18.3,25.0,19.0,9.0,95,86,64,30.36,30.07,10,2,13,0.00
2013-12-27,32.5,24.5,18.3,24.0,21.5,17.0,95,88,71,30.19,30.12,9,1,13,0.00
2013-12-28,37.8,32.7,17.8,33.0,28.1,16.0,95,83,76,30.11,29.95,8,2,19,0.00
2013-12-29,43.5,36.1,28.1,36.0,31.7,27.0,98,85,61,29.96,29.54,11,2,14,0.39
2013-12-30,36.5,20.9,3.1,35.0,15.5,-2.0,98,80,54,30.19,29.54,11,2,16,0.02
2013-12-31,16.7,11.3,4.7,13.0,5.6,-2.0,85,78,60,30.18,29.98,7,1,9,0.00
2014-1-1,21.2,10.6,-1.3,12.0,3.9,-10.0,87,74,61,30.44,30.11,6,1,12,0.00
2014-1-2,-0.5,-4.5,-10.1,-6.0,-9.6,-14.0,81,79,70,30.43,30.04,5,1,8,0.00